Time;durP1;ratioP1;P1;durP2;ratioP2;P2;SDS_P1;SDS_P2;PMS_P1;PMS_P2;Temp;Humidity;BMP_temperature;BMP_pressure;BME280_temperature;BME280_humidity;BME280_pressure;Samples;Min_cycle;Max_cycle;Signal;HPM_P1;HPM_P2
2022/04/18 00:01:01;;;;;;;1.37;0.60;;;8.10;87.10;;;;;;5031961;28;20167;-72
2022/04/18 00:03:27;;;;;;;0.70;0.50;;;8.00;87.60;;;;;;5031703;28;20164;-72
2022/04/18 00:05:52;;;;;;;0.70;0.50;;;7.90;87.90;;;;;;5032000;28;20170;-72
2022/04/18 00:08:18;;;;;;;0.70;0.50;;;7.90;89.10;;;;;;5031977;28;20160;-72
2022/04/18 00:10:44;;;;;;;0.80;0.60;;;7.80;90.00;;;;;;5032066;28;20168;-72
2022/04/18 00:13:09;;;;;;;0.70;0.50;;;7.80;90.00;;;;;;5031653;28;20633;-72
2022/04/18 00:15:35;;;;;;;0.70;0.50;;;7.70;90.60;;;;;;5031577;28;20433;-72
2022/04/18 00:18:01;;;;;;;0.70;0.50;;;7.60;90.90;;;;;;5031620;28;20274;-72
2022/04/18 00:20:26;;;;;;;1.00;0.73;;;7.60;92.20;;;;;;5031929;28;20168;-72
2022/04/18 00:22:52;;;;;;;0.80;0.70;;;7.60;92.40;;;;;;5031501;28;20195;-73
2022/04/18 00:25:17;;;;;;;0.80;0.70;;;7.50;92.80;;;;;;5031772;28;20247;-73
2022/04/18 00:27:43;;;;;;;0.70;0.50;;;7.50;93.30;;;;;;5031826;28;20187;-72
2022/04/18 00:30:09;;;;;;;0.70;0.60;;;7.40;94.00;;;;;;5031566;28;20234;-72
2022/04/18 00:32:35;;;;;;;0.70;0.60;;;7.40;94.30;;;;;;5031600;28;20637;-72
2022/04/18 00:35:02;;;;;;;0.70;0.50;;;7.40;95.80;;;;;;5031416;28;20413;-72
2022/04/18 00:37:28;;;;;;;0.70;0.50;;;7.40;96.50;;;;;;5031645;28;20935;-72
2022/04/18 00:39:53;;;;;;;1.33;1.23;;;7.40;97.00;;;;;;5031641;28;20541;-72
2022/04/18 00:42:19;;;;;;;0.70;0.60;;;7.40;97.00;;;;;;5031736;28;20564;-73
2022/04/18 00:44:44;;;;;;;0.70;0.50;;;7.40;97.30;;;;;;5031084;28;20168;-73
2022/04/18 00:47:10;;;;;;;0.70;0.50;;;7.40;97.30;;;;;;5031632;28;20533;-73
2022/04/18 00:49:35;;;;;;;0.70;0.50;;;7.50;98.00;;;;;;5031628;28;20163;-73
2022/04/18 00:52:03;;;;;;;0.70;0.60;;;7.50;98.20;;;;;;5031612;28;20178;-73
2022/04/18 00:54:30;;;;;;;0.77;0.70;;;7.50;98.90;;;;;;5031183;28;20180;-72
2022/04/18 00:56:55;;;;;;;0.80;0.60;;;7.50;98.20;;;;;;5031624;28;20438;-72
2022/04/18 00:59:22;;;;;;;0.80;0.50;;;7.50;98.20;;;;;;5031593;28;20464;-72
2022/04/18 01:01:47;;;;;;;0.70;0.50;;;7.50;98.80;;;;;;5031547;28;20241;-72
2022/04/18 01:04:13;;;;;;;0.70;0.50;;;7.50;98.80;;;;;;5030009;28;20923;-72
2022/04/18 01:06:38;;;;;;;0.80;0.80;;;7.40;98.80;;;;;;5031360;28;20673;-72
2022/04/18 01:09:04;;;;;;;1.63;0.60;;;7.50;98.90;;;;;;5031506;28;20217;-73
2022/04/18 01:11:32;;;;;;;0.80;0.60;;;7.50;97.50;;;;;;5031448;28;20168;-72
2022/04/18 01:14:02;;;;;;;0.70;0.60;;;7.50;97.30;;;;;;5031145;28;20216;-72
2022/04/18 01:16:28;;;;;;;0.80;0.77;;;7.50;96.80;;;;;;5031294;28;20430;-72
2022/04/18 01:18:56;;;;;;;0.97;0.80;;;7.50;96.80;;;;;;5031386;28;20838;-72
2022/04/18 01:21:21;;;;;;;0.80;0.60;;;7.50;97.40;;;;;;5031247;28;20800;-73
2022/04/18 01:23:47;;;;;;;0.70;0.60;;;7.50;98.90;;;;;;5031039;28;20422;-73
2022/04/18 01:28:58;;;;;;;1.00;0.90;;;7.50;98.30;;;;;;5034654;28;20582;-72
2022/04/18 01:31:23;;;;;;;0.80;0.60;;;7.50;98.50;;;;;;5034720;28;20844;-72
2022/04/18 01:33:49;;;;;;;0.80;0.80;;;7.40;98.50;;;;;;5034509;28;20500;-72
2022/04/18 01:36:14;;;;;;;0.70;0.50;;;7.40;98.40;;;;;;5034559;28;20199;-72
2022/04/18 01:38:40;;;;;;;0.70;0.50;;;7.40;98.60;;;;;;5034686;28;20179;-72
2022/04/18 01:41:05;;;;;;;0.70;0.50;;;7.30;98.90;;;;;;5034492;28;20178;-72
2022/04/18 01:43:31;;;;;;;0.70;0.50;;;7.30;99.00;;;;;;5034375;28;20164;-72
2022/04/18 01:45:56;;;;;;;0.70;0.50;;;7.30;99.10;;;;;;5033389;28;20550;-72
2022/04/18 01:48:22;;;;;;;0.70;0.50;;;7.30;99.30;;;;;;5034465;28;20172;-72
2022/04/18 01:50:47;;;;;;;0.80;0.60;;;7.30;99.10;;;;;;5034381;28;20175;-73
2022/04/18 01:53:13;;;;;;;1.63;1.50;;;7.20;99.00;;;;;;5034178;28;20222;-72
2022/04/18 01:55:38;;;;;;;0.70;0.50;;;7.10;99.20;;;;;;5034285;28;20726;-72
2022/04/18 01:58:05;;;;;;;0.80;0.70;;;7.10;99.80;;;;;;5034169;28;20681;-73
2022/04/18 02:00:34;;;;;;;0.80;0.60;;;7.00;99.90;;;;;;5034238;28;20584;-72
2022/04/18 02:02:59;;;;;;;0.70;0.50;;;6.90;99.90;;;;;;5033736;28;20891;-73
2022/04/18 02:05:25;;;;;;;0.70;0.50;;;6.90;99.90;;;;;;5034139;28;20442;-72
2022/04/18 02:07:51;;;;;;;0.90;0.50;;;6.80;99.90;;;;;;5033997;28;20183;-72
2022/04/18 02:10:16;;;;;;;0.80;0.60;;;6.80;99.90;;;;;;5034152;28;20942;-72
2022/04/18 02:12:42;;;;;;;0.70;0.50;;;6.70;99.90;;;;;;5034002;28;20179;-72
2022/04/18 02:15:09;;;;;;;0.73;0.60;;;6.70;99.90;;;;;;5033643;28;20637;-72
2022/04/18 02:17:34;;;;;;;0.83;0.83;;;6.60;99.90;;;;;;5032600;28;20628;-72
2022/04/18 02:20:00;;;;;;;1.50;1.20;;;6.60;99.90;;;;;;5033993;28;20501;-72
2022/04/18 02:22:27;;;;;;;0.90;0.80;;;6.50;99.90;;;;;;5033741;28;20211;-72
2022/04/18 02:24:56;;;;;;;0.70;0.50;;;6.50;99.90;;;;;;5033585;28;20172;-72
2022/04/18 02:27:22;;;;;;;0.80;0.50;;;6.40;99.90;;;;;;5033998;28;21407;-72
2022/04/18 02:29:47;;;;;;;0.80;0.60;;;6.40;99.90;;;;;;5033507;28;20493;-73
2022/04/18 02:34:57;;;;;;;0.80;0.60;;;6.30;99.90;;;;;;5033476;28;20619;-72
2022/04/18 02:37:22;;;;;;;8.53;1.20;;;6.30;99.90;;;;;;5033403;28;20438;-72
2022/04/18 02:39:48;;;;;;;0.80;0.60;;;6.20;99.90;;;;;;5033272;28;20178;-72
2022/04/18 02:42:13;;;;;;;0.70;0.50;;;6.10;99.90;;;;;;5033314;28;20554;-72
2022/04/18 02:44:42;;;;;;;0.80;0.60;;;6.10;99.90;;;;;;5033145;28;20222;-72
2022/04/18 02:47:07;;;;;;;0.80;0.50;;;6.00;99.90;;;;;;5033403;28;20223;-73
2022/04/18 02:49:33;;;;;;;0.70;0.50;;;6.00;99.90;;;;;;5033328;28;20416;-73
2022/04/18 02:51:58;;;;;;;0.90;0.70;;;6.00;99.90;;;;;;5033408;28;20254;-73
2022/04/18 02:54:24;;;;;;;0.70;0.50;;;6.10;99.90;;;;;;5032841;28;20263;-73
2022/04/18 02:56:49;;;;;;;0.70;0.60;;;6.10;99.90;;;;;;5033099;28;20190;-73
2022/04/18 02:59:15;;;;;;;1.23;1.13;;;6.10;99.90;;;;;;5033076;28;20160;-72
2022/04/18 03:01:41;;;;;;;0.90;0.70;;;6.20;99.90;;;;;;5033142;28;20203;-73
2022/04/18 03:04:07;;;;;;;0.80;0.67;;;6.10;99.90;;;;;;5032705;28;20164;-73
2022/04/18 03:06:32;;;;;;;0.70;0.50;;;6.10;99.90;;;;;;5032986;28;20422;-72
2022/04/18 03:08:58;;;;;;;0.70;0.50;;;6.00;99.90;;;;;;5032929;28;20164;-72
2022/04/18 03:11:23;;;;;;;0.80;0.70;;;6.00;99.90;;;;;;5032934;28;20168;-72
2022/04/18 03:13:49;;;;;;;0.70;0.50;;;6.00;99.90;;;;;;5032544;28;20199;-72
2022/04/18 03:16:14;;;;;;;0.70;0.50;;;6.00;99.90;;;;;;5032709;28;20191;-72
2022/04/18 03:18:40;;;;;;;1.43;0.80;;;5.90;99.90;;;;;;5032820;28;20192;-73
2022/04/18 03:21:06;;;;;;;0.70;0.50;;;5.90;99.90;;;;;;5032642;28;20209;-73
2022/04/18 03:23:32;;;;;;;1.97;1.50;;;5.80;99.90;;;;;;5032360;28;20175;-72
2022/04/18 03:25:58;;;;;;;0.70;0.50;;;5.80;99.90;;;;;;5032556;28;20199;-72
2022/04/18 03:28:25;;;;;;;0.80;0.67;;;5.80;99.90;;;;;;5032482;28;20488;-73
2022/04/18 03:30:51;;;;;;;0.70;0.50;;;5.70;99.90;;;;;;5032584;28;20732;-73
2022/04/18 03:33:17;;;;;;;0.70;0.50;;;5.70;99.90;;;;;;5032145;28;20504;-73
2022/04/18 03:39:50;;;;;;;0.70;0.50;;;5.70;99.90;;;;;;5032438;28;20438;-72
2022/04/18 03:41:14;;;;;;;0.80;0.77;;;5.60;99.90;;;;;;5032205;28;20572;-73
2022/04/18 03:43:39;;;;;;;0.70;0.50;;;5.60;99.90;;;;;;5032092;28;20505;-72
2022/04/18 03:46:05;;;;;;;0.73;0.60;;;5.60;99.90;;;;;;5032233;28;20426;-73
2022/04/18 03:48:30;;;;;;;0.70;0.50;;;5.50;99.90;;;;;;5032266;28;20501;-73
2022/04/18 03:50:57;;;;;;;0.70;0.50;;;5.50;99.90;;;;;;5031641;28;20195;-72
2022/04/18 03:53:22;;;;;;;0.70;0.50;;;5.50;99.90;;;;;;5031912;28;20764;-72
2022/04/18 03:55:48;;;;;;;0.90;0.63;;;5.50;99.90;;;;;;5031953;28;20509;-72
2022/04/18 03:58:13;;;;;;;0.70;0.50;;;5.40;99.90;;;;;;5032080;28;20175;-72
2022/04/18 04:00:42;;;;;;;0.70;0.50;;;5.40;99.90;;;;;;5032078;28;20160;-73
2022/04/18 04:03:08;;;;;;;0.70;0.50;;;5.40;99.90;;;;;;5032159;28;20763;-72
2022/04/18 04:05:33;;;;;;;0.73;0.60;;;5.40;99.90;;;;;;5030683;28;20858;-72
2022/04/18 04:07:59;;;;;;;2.13;0.80;;;5.40;99.90;;;;;;5031939;28;20520;-74
2022/04/18 04:10:25;;;;;;;0.70;0.50;;;5.40;99.90;;;;;;5031726;28;20195;-72
2022/04/18 04:12:50;;;;;;;0.93;0.83;;;5.40;99.90;;;;;;5031945;28;20219;-72
2022/04/18 04:15:16;;;;;;;0.80;0.80;;;5.40;99.90;;;;;;5031738;28;20242;-72
2022/04/18 04:17:42;;;;;;;0.70;0.50;;;5.30;99.90;;;;;;5031838;28;20176;-72
2022/04/18 04:20:08;;;;;;;0.70;0.50;;;5.30;99.90;;;;;;5030420;28;20492;-72
2022/04/18 04:22:33;;;;;;;0.80;0.50;;;5.40;99.90;;;;;;5031842;28;20717;-73
2022/04/18 04:24:59;;;;;;;0.70;0.50;;;5.40;99.90;;;;;;5031657;28;20517;-72
2022/04/18 04:27:24;;;;;;;0.70;0.50;;;5.40;99.90;;;;;;5031632;28;20210;-72
2022/04/18 04:29:50;;;;;;;0.70;0.50;;;5.40;99.90;;;;;;5031867;28;20172;-72
2022/04/18 04:32:15;;;;;;;0.70;0.60;;;5.40;99.90;;;;;;5031650;28;20269;-72
2022/04/18 04:34:42;;;;;;;0.70;0.50;;;5.30;99.90;;;;;;5031558;28;20771;-72
2022/04/18 04:37:08;;;;;;;0.90;0.67;;;5.30;99.90;;;;;;5031640;28;20546;-72
2022/04/18 04:39:33;;;;;;;0.80;0.60;;;5.30;99.90;;;;;;5031748;28;20413;-72
2022/04/18 04:41:59;;;;;;;0.70;0.50;;;5.30;99.90;;;;;;5031650;28;20179;-71
2022/04/18 04:44:24;;;;;;;0.80;0.70;;;5.30;99.90;;;;;;5031201;28;20164;-72
2022/04/18 04:46:51;;;;;;;0.70;0.50;;;5.30;99.90;;;;;;5031557;28;20187;-72
2022/04/18 04:49:16;;;;;;;0.70;0.50;;;5.20;99.90;;;;;;5030346;28;20227;-72
2022/04/18 04:51:42;;;;;;;0.70;0.50;;;5.20;99.90;;;;;;5031515;28;20442;-72
2022/04/18 04:54:08;;;;;;;0.70;0.50;;;5.20;99.90;;;;;;5031208;28;20191;-72
2022/04/18 04:56:33;;;;;;;0.70;0.50;;;5.20;99.90;;;;;;5031508;28;20454;-73
2022/04/18 04:58:59;;;;;;;0.70;0.50;;;5.20;99.90;;;;;;5031611;28;20225;-73
2022/04/18 05:01:25;;;;;;;0.97;0.87;;;5.20;99.90;;;;;;5032639;28;20171;-73
2022/04/18 05:03:52;;;;;;;0.70;0.50;;;5.20;99.90;;;;;;5035095;28;20259;-73
2022/04/18 05:06:17;;;;;;;0.80;0.70;;;5.20;99.90;;;;;;5035360;28;20487;-73
2022/04/18 05:08:43;;;;;;;0.70;0.50;;;5.30;99.90;;;;;;5033980;28;20402;-72
2022/04/18 05:11:09;;;;;;;1.33;1.20;;;5.40;99.90;;;;;;5035104;28;20163;-73
2022/04/18 05:13:34;;;;;;;0.70;0.50;;;5.50;99.90;;;;;;5034883;28;20164;-72
2022/04/18 05:16:00;;;;;;;0.70;0.50;;;5.80;99.90;;;;;;5035080;28;20665;-72
2022/04/18 05:18:27;;;;;;;0.70;0.50;;;6.00;99.90;;;;;;5035021;28;20175;-72
2022/04/18 05:20:52;;;;;;;0.70;0.50;;;6.30;99.90;;;;;;5035247;28;20778;-72
2022/04/18 05:23:20;;;;;;;2.93;0.73;;;6.60;99.90;;;;;;5034627;28;20418;-72
2022/04/18 05:25:46;;;;;;;0.70;0.50;;;7.00;99.90;;;;;;5034878;28;20241;-72
2022/04/18 05:28:11;;;;;;;0.70;0.60;;;7.10;99.90;;;;;;5033594;28;20931;-72
2022/04/18 05:30:37;;;;;;;0.70;0.50;;;7.20;99.90;;;;;;5034863;28;20423;-72
2022/04/18 05:33:03;;;;;;;0.70;0.50;;;7.50;99.90;;;;;;5034849;28;20195;-72
2022/04/18 05:35:29;;;;;;;0.80;0.60;;;8.10;99.90;;;;;;5034424;28;20402;-72
2022/04/18 05:37:55;;;;;;;1.27;1.17;;;8.90;99.90;;;;;;5034655;28;20764;-73
2022/04/18 05:40:20;;;;;;;1.20;1.10;;;9.90;99.90;;;;;;5034602;28;20171;-73
2022/04/18 05:42:46;;;;;;;0.83;0.67;;;10.70;99.90;;;;;;5034670;28;20175;-72
2022/04/18 05:45:12;;;;;;;0.77;0.60;;;11.50;99.90;;;;;;5034314;28;20672;-73
2022/04/18 05:47:38;;;;;;;1.07;0.97;;;12.40;99.50;;;;;;5034454;28;20191;-73
2022/04/18 05:50:04;;;;;;;0.80;0.60;;;13.20;93.20;;;;;;5034474;28;20403;-73
2022/04/18 05:52:30;;;;;;;0.80;0.67;;;14.00;91.30;;;;;;5033110;28;20245;-73
2022/04/18 05:54:56;;;;;;;0.80;0.60;;;14.80;85.50;;;;;;5033844;28;20927;-73
2022/04/18 05:57:21;;;;;;;0.80;0.70;;;15.50;74.90;;;;;;5034309;28;20199;-73
2022/04/18 05:59:47;;;;;;;1.13;0.93;;;15.80;65.60;;;;;;5034234;28;20223;-73
2022/04/18 06:02:13;;;;;;;1.10;1.00;;;16.30;61.90;;;;;;5034402;28;20524;-73
2022/04/18 06:04:39;;;;;;;2.70;0.80;;;16.80;59.20;;;;;;5033859;28;20414;-73
2022/04/18 06:07:05;;;;;;;0.80;0.63;;;17.40;57.00;;;;;;5034118;28;20194;-73
2022/04/18 06:09:31;;;;;;;1.67;1.23;;;17.70;55.20;;;;;;5034237;28;20414;-73
2022/04/18 06:11:57;;;;;;;1.33;0.70;;;18.20;53.70;;;;;;5034171;28;20453;-74
2022/04/18 06:14:22;;;;;;;1.37;0.90;;;18.60;52.10;;;;;;5033117;28;20163;-74
2022/04/18 06:16:48;;;;;;;2.60;0.87;;;18.90;50.90;;;;;;5034014;28;20425;-73
2022/04/18 06:19:14;;;;;;;1.00;0.73;;;19.40;50.20;;;;;;5034002;28;20171;-74
2022/04/18 06:21:39;;;;;;;1.00;0.70;;;19.90;48.90;;;;;;5033856;28;20167;-73
2022/04/18 06:24:05;;;;;;;1.43;0.83;;;20.40;48.40;;;;;;5033591;28;20179;-73
2022/04/18 06:26:30;;;;;;;1.33;0.80;;;20.80;47.20;;;;;;5033762;28;20187;-74
2022/04/18 06:28:59;;;;;;;0.87;0.77;;;21.10;46.10;;;;;;5033830;28;20195;-74
2022/04/18 06:31:25;;;;;;;1.00;0.80;;;21.60;45.50;;;;;;5033317;28;20187;-74
2022/04/18 06:33:50;;;;;;;1.47;1.37;;;22.00;44.70;;;;;;5033174;28;20774;-74
2022/04/18 06:36:16;;;;;;;0.97;0.83;;;22.40;44.60;;;;;;5033475;28;20422;-74
2022/04/18 06:38:42;;;;;;;1.00;0.90;;;22.70;43.50;;;;;;5033491;28;20172;-74
2022/04/18 06:41:10;;;;;;;1.30;1.10;;;22.50;42.90;;;;;;5033550;28;20243;-74
2022/04/18 06:43:36;;;;;;;1.00;0.90;;;22.90;42.80;;;;;;5031908;28;20183;-73
2022/04/18 06:46:02;;;;;;;0.90;0.70;;;23.40;41.60;;;;;;5033353;28;20430;-74
2022/04/18 06:48:27;;;;;;;0.80;0.60;;;23.70;41.40;;;;;;5033384;28;20172;-74
2022/04/18 06:50:53;;;;;;;1.17;1.07;;;24.40;41.60;;;;;;5033242;28;20172;-74
2022/04/18 06:53:20;;;;;;;1.00;0.90;;;24.70;41.10;;;;;;5032994;28;20195;-73
2022/04/18 06:58:30;;;;;;;1.10;0.87;;;25.00;39.60;;;;;;5033596;28;20414;-73
2022/04/18 07:00:56;;;;;;;1.07;0.97;;;25.40;39.50;;;;;;5033374;28;20406;-72
2022/04/18 07:03:21;;;;;;;0.90;0.77;;;25.80;39.10;;;;;;5032791;28;20560;-74
2022/04/18 07:05:48;;;;;;;0.90;0.63;;;25.60;38.00;;;;;;5032956;28;21124;-74
2022/04/18 07:08:14;;;;;;;0.90;0.70;;;25.60;38.30;;;;;;5032920;28;20171;-74
2022/04/18 07:10:39;;;;;;;1.10;1.00;;;26.30;39.00;;;;;;5031678;28;20916;-74
2022/04/18 07:13:05;;;;;;;1.30;1.20;;;26.80;37.90;;;;;;5032845;28;20210;-74
2022/04/18 07:15:32;;;;;;;1.30;1.20;;;27.10;37.20;;;;;;5032570;28;20251;-74
2022/04/18 07:17:58;;;;;;;1.73;1.50;;;26.80;36.10;;;;;;5032759;28;20218;-74
2022/04/18 07:20:23;;;;;;;1.60;1.30;;;26.90;35.90;;;;;;5031517;28;21153;-74
2022/04/18 07:22:49;;;;;;;1.10;1.00;;;27.30;36.10;;;;;;5032708;28;20175;-74
2022/04/18 07:25:15;;;;;;;0.90;0.80;;;27.60;34.90;;;;;;5031539;28;20583;-74
2022/04/18 07:27:41;;;;;;;1.07;0.90;;;28.10;35.20;;;;;;5032539;28;20491;-72
2022/04/18 07:30:07;;;;;;;1.13;1.03;;;28.70;35.30;;;;;;5032642;28;20542;-73
2022/04/18 07:32:42;;;;;;;1.27;1.17;;;29.10;34.20;;;;;;5032493;28;20576;-72
2022/04/18 07:35:09;;;;;;;1.40;1.30;;;29.40;33.50;;;;;;5032357;28;20409;-73
2022/04/18 07:37:35;;;;;;;1.20;0.87;;;29.70;32.90;;;;;;5032382;28;20528;-73
2022/04/18 07:40:01;;;;;;;1.77;0.80;;;30.20;33.00;;;;;;5032491;28;20394;-74
2022/04/18 07:42:26;;;;;;;1.00;0.83;;;30.50;32.40;;;;;;5032409;28;20417;-73
2022/04/18 07:44:52;;;;;;;1.30;1.13;;;30.40;31.70;;;;;;5031957;28;20184;-73
2022/04/18 07:47:17;;;;;;;1.57;1.10;;;30.50;31.40;;;;;;5032206;28;20192;-73
2022/04/18 07:49:43;;;;;;;1.50;1.23;;;30.90;31.40;;;;;;5032257;28;20175;-73
2022/04/18 07:52:09;;;;;;;1.40;1.00;;;31.50;31.10;;;;;;5032177;28;20668;-74
2022/04/18 07:54:35;;;;;;;1.33;1.23;;;31.50;30.00;;;;;;5031919;28;20229;-74
2022/04/18 07:57:01;;;;;;;1.63;1.30;;;31.50;30.00;;;;;;5032348;28;20274;-73
2022/04/18 07:59:26;;;;;;;2.50;1.50;;;31.70;30.20;;;;;;5031561;28;20489;-73
2022/04/18 08:01:52;;;;;;;1.07;0.97;;;32.00;30.20;;;;;;5032099;28;20703;-73
2022/04/18 08:04:17;;;;;;;1.20;1.10;;;32.60;29.70;;;;;;5031908;28;20190;-73
2022/04/18 08:10:14;;;;;;;1.30;1.20;;;33.50;29.30;;;;;;5031511;28;20249;-74
2022/04/18 08:16:22;;;;;;;1.60;1.20;;;33.60;28.60;;;;;;4990214;28;20556;-74
2022/04/18 08:19:12;;;;;;;1.50;1.10;;;33.70;28.80;;;;;;5027118;28;20402;-73
2022/04/18 08:22:07;;;;;;;1.70;1.60;;;34.60;28.80;;;;;;5032088;28;20449;-74
2022/04/18 08:24:42;;;;;;;1.50;1.20;;;35.10;28.00;;;;;;5047045;28;20457;-74
2022/04/18 08:27:33;;;;;;;1.40;1.30;;;35.50;27.90;;;;;;5030130;28;20429;-74
2022/04/18 08:30:16;;;;;;;1.77;1.10;;;35.70;27.50;;;;;;5030341;28;20834;-74
2022/04/18 08:32:55;;;;;;;1.30;1.20;;;36.30;27.70;;;;;;5030348;28;20421;-74
2022/04/18 08:36:00;;;;;;;1.30;1.07;;;37.00;27.30;;;;;;5030209;28;20428;-74
2022/04/18 08:38:33;;;;;;;1.30;1.20;;;37.60;27.10;;;;;;5034523;28;20425;-74
2022/04/18 08:41:26;;;;;;;1.87;1.10;;;37.80;26.50;;;;;;5034350;28;20426;-74
2022/04/18 08:44:09;;;;;;;1.40;1.30;;;38.00;26.90;;;;;;5034174;28;20426;-75
2022/04/18 08:46:53;;;;;;;1.20;1.00;;;38.90;26.50;;;;;;5034178;28;20434;-74
2022/04/18 08:55:30;;;;;;;1.33;1.23;;;40.20;25.80;;;;;;5035673;28;20781;-74
2022/04/18 08:58:09;;;;;;;1.47;1.37;;;40.70;25.30;;;;;;5021203;28;20446;-75
2022/04/18 09:01:02;;;;;;;1.30;1.20;;;41.60;25.20;;;;;;5034256;28;20432;-74
2022/04/18 09:03:34;;;;;;;2.13;1.33;;;41.80;24.30;;;;;;5034025;28;20422;-74
2022/04/18 09:06:45;;;;;;;1.47;1.37;;;42.50;24.40;;;;;;5033402;28;20478;-74
2022/04/18 09:09:15;;;;;;;1.40;1.30;;;42.90;24.10;;;;;;5034743;28;20497;-75
2022/04/18 09:12:00;;;;;;;2.00;1.90;;;43.40;23.80;;;;;;5033993;28;20490;-74
2022/04/18 09:14:37;;;;;;;1.20;1.10;;;44.00;23.90;;;;;;5033405;28;20471;-74
2022/04/18 09:17:17;;;;;;;1.67;1.57;;;44.50;23.50;;;;;;5033859;28;20412;-75
2022/04/18 09:19:43;;;;;;;1.63;1.40;;;44.40;22.70;;;;;;5033688;28;20427;-75
2022/04/18 09:22:08;;;;;;;1.60;1.50;;;44.30;22.80;;;;;;5035056;28;20924;-75
2022/04/18 09:24:36;;;;;;;2.53;2.33;;;44.70;22.70;;;;;;5034668;28;20167;-75
2022/04/18 09:27:25;;;;;;;1.53;1.43;;;45.00;22.80;;;;;;5034611;28;20219;-75
2022/04/18 09:30:05;;;;;;;1.80;1.30;;;45.10;22.70;;;;;;5034865;28;20501;-74
2022/04/18 09:32:31;;;;;;;1.83;1.50;;;45.30;22.40;;;;;;5034684;28;21145;-75
2022/04/18 09:35:01;;;;;;;1.97;1.63;;;45.80;22.70;;;;;;5034383;28;20406;-76
2022/04/18 09:37:31;;;;;;;1.60;1.50;;;46.00;22.00;;;;;;5034490;28;20661;-75
2022/04/18 09:39:57;;;;;;;1.87;1.70;;;46.10;21.70;;;;;;5034652;28;20414;-75
2022/04/18 09:42:25;;;;;;;2.50;1.73;;;46.10;21.40;;;;;;5034628;28;20418;-75
2022/04/18 09:44:51;;;;;;;2.90;1.47;;;46.50;22.00;;;;;;5034269;28;20410;-75
2022/04/18 09:47:18;;;;;;;1.50;1.40;;;47.00;22.10;;;;;;5034125;28;20507;-75
2022/04/18 09:49:44;;;;;;;1.40;1.30;;;47.50;21.40;;;;;;5033859;28;20184;-75
2022/04/18 09:52:12;;;;;;;2.63;2.43;;;47.70;21.10;;;;;;5034403;28;20420;-75
2022/04/18 09:54:55;;;;;;;1.67;1.57;;;47.70;21.10;;;;;;5027646;28;20405;-75
2022/04/18 09:57:23;;;;;;;1.80;1.70;;;47.90;21.10;;;;;;5022582;28;20473;-76
2022/04/18 09:59:51;;;;;;;1.50;1.40;;;48.50;21.10;;;;;;5031738;28;20403;-76
2022/04/18 10:02:17;;;;;;;1.60;1.50;;;48.80;20.60;;;;;;5014571;28;20451;-76
2022/04/18 10:04:44;;;;;;;1.80;1.70;;;48.70;20.80;;;;;;5014134;28;20407;-76
2022/04/18 10:07:10;;;;;;;2.00;1.77;;;49.20;20.80;;;;;;5014294;28;20406;-75
2022/04/18 10:09:39;;;;;;;1.97;1.77;;;49.70;20.70;;;;;;5014426;28;20393;-75
2022/04/18 10:12:07;;;;;;;1.87;1.77;;;50.00;20.20;;;;;;5014286;28;20489;-76
2022/04/18 10:14:33;;;;;;;1.60;1.50;;;50.00;19.60;;;;;;5029194;28;20419;-75
2022/04/18 10:17:01;;;;;;;1.93;1.70;;;49.80;19.70;;;;;;5012808;28;20398;-75
2022/04/18 10:19:54;;;;;;;1.50;1.40;;;49.40;19.90;;;;;;5014183;28;20181;-75
2022/04/18 10:22:31;;;;;;;1.40;1.30;;;49.30;20.10;;;;;;5014221;28;20443;-76
2022/04/18 10:25:37;;;;;;;1.50;1.40;;;49.50;20.40;;;;;;5013827;28;20925;-76
2022/04/18 10:28:14;;;;;;;1.60;1.50;;;49.70;20.30;;;;;;5013973;28;20510;-76
2022/04/18 10:30:57;;;;;;;1.60;1.50;;;50.00;20.40;;;;;;5014004;28;20401;-75
2022/04/18 10:33:23;;;;;;;1.43;1.33;;;50.10;19.80;;;;;;5013641;28;20896;-75
2022/04/18 10:36:04;;;;;;;1.90;1.80;;;49.70;19.80;;;;;;5013312;28;20937;-75
2022/04/18 10:38:36;;;;;;;1.60;1.50;;;49.90;19.90;;;;;;5012669;28;20523;-75
2022/04/18 10:41:25;;;;;;;1.50;1.40;;;50.20;19.70;;;;;;5013678;28;20790;-75
2022/04/18 10:43:53;;;;;;;1.50;1.40;;;49.90;19.30;;;;;;5013303;28;20434;-76
2022/04/18 10:46:20;;;;;;;1.77;1.67;;;49.20;19.10;;;;;;5013702;28;20413;-76
2022/04/18 10:48:55;;;;;;;1.53;1.43;;;48.80;19.60;;;;;;5013568;28;20405;-75
2022/04/18 10:51:34;;;;;;;1.40;1.30;;;48.30;18.60;;;;;;5013538;28;20778;-75
2022/04/18 10:54:10;;;;;;;1.63;1.53;;;48.50;18.90;;;;;;5013158;28;20465;-75
2022/04/18 10:56:51;;;;;;;1.40;1.30;;;48.50;18.90;;;;;;5013440;28;20413;-75
2022/04/18 10:59:19;;;;;;;1.50;1.40;;;48.00;19.20;;;;;;5013204;28;20431;-75
2022/04/18 11:01:46;;;;;;;2.47;1.47;;;47.30;19.20;;;;;;5013276;28;20438;-75
2022/04/18 11:04:12;;;;;;;1.80;1.70;;;46.50;19.30;;;;;;5012965;28;20411;-75
2022/04/18 11:06:38;;;;;;;1.90;1.70;;;46.60;19.40;;;;;;5012080;28;20524;-75
2022/04/18 11:09:08;;;;;;;1.63;1.53;;;46.70;19.70;;;;;;5013240;28;21113;-75
2022/04/18 11:12:00;;;;;;;1.30;1.20;;;47.00;19.80;;;;;;5013117;28;20423;-75
2022/04/18 11:14:29;;;;;;;1.83;1.50;;;46.60;19.30;;;;;;5012926;28;20884;-75
2022/04/18 11:16:58;;;;;;;1.70;1.40;;;46.60;19.50;;;;;;5012835;28;20800;-75
2022/04/18 11:19:27;;;;;;;3.00;1.87;;;46.40;19.50;;;;;;5011546;28;20951;-75
2022/04/18 11:21:56;;;;;;;1.40;1.30;;;46.50;19.60;;;;;;5012779;28;20473;-75
2022/04/18 11:24:51;;;;;;;2.20;2.00;;;46.70;19.80;;;;;;5012616;28;20421;-75
2022/04/18 11:27:23;;;;;;;1.63;1.53;;;47.30;19.70;;;;;;5012822;28;20853;-75
2022/04/18 11:29:52;;;;;;;1.40;1.30;;;46.90;19.10;;;;;;5012924;28;20386;-75
2022/04/18 11:32:20;;;;;;;2.70;1.80;;;46.70;19.20;;;;;;5012723;28;20485;-75
2022/04/18 11:34:48;;;;;;;6.53;1.50;;;46.60;19.70;;;;;;5012453;28;20922;-75
2022/04/18 11:37:22;;;;;;;1.50;1.40;;;46.40;19.70;;;;;;5011260;28;20433;-75
2022/04/18 11:39:49;;;;;;;1.70;1.60;;;46.80;19.40;;;;;;5012528;28;20384;-75
2022/04/18 11:42:18;;;;;;;1.50;1.40;;;47.10;19.40;;;;;;5012589;28;20420;-75
2022/04/18 11:44:45;;;;;;;1.70;1.57;;;47.50;19.20;;;;;;5012367;28;20477;-75
2022/04/18 11:47:13;;;;;;;1.20;1.10;;;47.30;19.20;;;;;;5012447;28;20435;-75
2022/04/18 11:49:40;;;;;;;1.90;1.60;;;47.70;19.20;;;;;;5012596;28;20381;-75
2022/04/18 11:52:07;;;;;;;1.73;1.63;;;48.00;19.30;;;;;;5012337;28;20426;-75
2022/04/18 11:54:33;;;;;;;1.83;1.73;;;48.70;19.60;;;;;;5011991;28;20496;-75
2022/04/18 11:57:05;;;;;;;1.77;1.67;;;48.80;18.90;;;;;;5012359;28;20409;-75
2022/04/18 11:59:32;;;;;;;2.30;2.10;;;49.00;19.20;;;;;;5012361;28;20524;-73
2022/04/18 12:07:31;;;;;;;1.30;1.20;;;49.80;18.40;;;;;;5012340;28;20405;-73
2022/04/18 12:09:57;;;;;;;1.80;1.70;;;50.10;18.50;;;;;;5012378;28;20374;-73
2022/04/18 12:12:27;;;;;;;1.67;1.57;;;50.40;18.80;;;;;;5011723;28;20437;-73
2022/04/18 12:14:53;;;;;;;2.00;1.90;;;50.90;18.80;;;;;;5011897;28;20165;-73
2022/04/18 12:17:19;;;;;;;1.50;1.40;;;51.40;18.60;;;;;;5027317;28;20814;-73
2022/04/18 12:19:44;;;;;;;1.40;1.30;;;51.40;18.50;;;;;;5012179;28;20184;-73
2022/04/18 12:22:21;;;;;;;1.90;1.80;;;51.20;18.40;;;;;;5012115;28;20262;-73
2022/04/18 12:24:47;;;;;;;1.70;1.60;;;51.40;18.70;;;;;;5011965;28;20172;-74
2022/04/18 12:27:14;;;;;;;1.87;1.60;;;51.90;18.60;;;;;;5012100;28;20399;-73
2022/04/18 12:29:39;;;;;;;1.83;1.60;;;52.50;18.70;;;;;;5012159;28;20378;-73
2022/04/18 12:32:05;;;;;;;2.30;2.10;;;52.50;18.40;;;;;;5011937;28;20499;-73
2022/04/18 12:34:31;;;;;;;1.83;1.73;;;52.60;18.40;;;;;;5011782;28;20168;-73
2022/04/18 12:37:01;;;;;;;1.37;1.27;;;52.90;18.70;;;;;;5012057;28;20698;-73
2022/04/18 12:39:27;;;;;;;1.70;1.60;;;53.00;18.20;;;;;;5011885;28;20227;-73
2022/04/18 12:42:03;;;;;;;1.70;1.60;;;53.00;18.20;;;;;;5027127;28;20390;-74
2022/04/18 12:44:29;;;;;;;1.50;1.40;;;52.90;18.50;;;;;;5011576;28;20195;-74
2022/04/18 12:46:54;;;;;;;1.63;1.53;;;52.90;18.20;;;;;;5011799;28;20417;-74
2022/04/18 12:49:20;;;;;;;1.70;1.60;;;52.90;18.20;;;;;;5011846;28;20255;-74
2022/04/18 12:51:50;;;;;;;1.70;1.60;;;52.70;17.90;;;;;;5011738;28;20196;-74
2022/04/18 12:54:23;;;;;;;1.60;1.50;;;52.50;18.20;;;;;;5011720;28;20204;-74
2022/04/18 12:56:50;;;;;;;1.80;1.70;;;52.60;18.40;;;;;;5011761;28;20439;-73
2022/04/18 12:59:30;;;;;;;1.33;1.23;;;52.70;18.20;;;;;;5011704;28;20399;-74
2022/04/18 13:02:07;;;;;;;1.93;1.80;;;52.90;18.10;;;;;;5011881;28;20461;-74
2022/04/18 13:04:33;;;;;;;1.77;1.50;;;52.30;17.90;;;;;;5011544;28;20414;-73
2022/04/18 13:07:10;;;;;;;1.40;1.30;;;51.90;17.60;;;;;;5011739;28;20939;-73
2022/04/18 13:09:36;;;;;;;1.53;1.43;;;51.70;18.20;;;;;;5011780;28;20538;-73
2022/04/18 13:12:09;;;;;;;1.57;1.47;;;51.30;17.90;;;;;;5011652;28;20421;-73
2022/04/18 13:15:02;;;;;;;1.47;1.37;;;50.50;17.90;;;;;;5011491;28;20169;-73
2022/04/18 13:17:27;;;;;;;1.67;1.57;;;49.70;18.00;;;;;;5011702;28;20406;-76
2022/04/18 13:19:53;;;;;;;1.30;1.20;;;49.40;18.50;;;;;;5026775;28;20876;-76
2022/04/18 13:22:19;;;;;;;2.00;1.80;;;48.90;18.70;;;;;;5012511;28;20586;-75
2022/04/18 13:24:45;;;;;;;1.60;1.50;;;48.70;18.40;;;;;;5014845;28;20179;-75
2022/04/18 13:27:25;;;;;;;1.20;1.10;;;48.20;18.30;;;;;;5014840;28;20188;-75